Terminal Aerodrome Forecast
Issued by NWS Duluth, MN

Home | Current Version | Previous Version | Text Only | Print | Product List | Glossary On
Versions: 1 2 3 4 5 6 7 8 9 10 11 12 13 14 15
000
FTUS43 KDLH 012300
TAFINL
TAF
KINL 012332Z 0200/0224 VRB05KT P6SM SCT100
     FM021600 20013G23KT P6SM SCT100
     FM022100 20015G25KT P6SM VCSH BKN080=

USA.gov is the U.S. government's official web portal to all federal, state and local government web resources and services.